sensor_id;sensor_type;location;lat;lon;timestamp;P1;durP1;ratioP1;P2;durP2;ratioP2
2656;SDS011;1338;48.176;11.792;2023-06-14T00:00:05;3.73;;;3.27;;
2656;SDS011;1338;48.176;11.792;2023-06-14T00:02:34;4.30;;;3.90;;
2656;SDS011;1338;48.176;11.792;2023-06-14T00:05:03;4.00;;;3.70;;
2656;SDS011;1338;48.176;11.792;2023-06-14T00:07:35;4.17;;;3.80;;
2656;SDS011;1338;48.176;11.792;2023-06-14T00:10:05;6.07;;;4.00;;
2656;SDS011;1338;48.176;11.792;2023-06-14T00:12:34;4.07;;;3.67;;
2656;SDS011;1338;48.176;11.792;2023-06-14T00:15:02;4.17;;;3.77;;
2656;SDS011;1338;48.176;11.792;2023-06-14T00:17:33;3.87;;;3.57;;
2656;SDS011;1338;48.176;11.792;2023-06-14T00:20:03;4.47;;;3.90;;
2656;SDS011;1338;48.176;11.792;2023-06-14T00:22:33;4.37;;;4.03;;
2656;SDS011;1338;48.176;11.792;2023-06-14T00:25:03;4.07;;;3.77;;
2656;SDS011;1338;48.176;11.792;2023-06-14T00:27:49;4.03;;;3.73;;
2656;SDS011;1338;48.176;11.792;2023-06-14T00:30:19;4.53;;;3.60;;
2656;SDS011;1338;48.176;11.792;2023-06-14T00:32:48;4.47;;;4.07;;
2656;SDS011;1338;48.176;11.792;2023-06-14T00:35:16;4.00;;;3.70;;
2656;SDS011;1338;48.176;11.792;2023-06-14T00:37:45;3.90;;;3.60;;
2656;SDS011;1338;48.176;11.792;2023-06-14T00:40:13;4.07;;;3.70;;
2656;SDS011;1338;48.176;11.792;2023-06-14T00:42:44;5.00;;;3.30;;
2656;SDS011;1338;48.176;11.792;2023-06-14T00:45:12;3.60;;;3.30;;
2656;SDS011;1338;48.176;11.792;2023-06-14T00:47:42;3.93;;;3.63;;
2656;SDS011;1338;48.176;11.792;2023-06-14T00:50:12;4.20;;;3.80;;
2656;SDS011;1338;48.176;11.792;2023-06-14T00:52:40;4.53;;;4.10;;
2656;SDS011;1338;48.176;11.792;2023-06-14T00:55:09;4.53;;;4.10;;
2656;SDS011;1338;48.176;11.792;2023-06-14T00:57:37;4.17;;;3.77;;
2656;SDS011;1338;48.176;11.792;2023-06-14T01:00:07;4.57;;;3.90;;
2656;SDS011;1338;48.176;11.792;2023-06-14T01:02:36;4.20;;;3.80;;
2656;SDS011;1338;48.176;11.792;2023-06-14T01:05:09;4.60;;;4.07;;
2656;SDS011;1338;48.176;11.792;2023-06-14T01:07:46;5.70;;;4.03;;
2656;SDS011;1338;48.176;11.792;2023-06-14T01:10:29;4.33;;;3.90;;
2656;SDS011;1338;48.176;11.792;2023-06-14T01:13:05;4.47;;;4.07;;
2656;SDS011;1338;48.176;11.792;2023-06-14T01:15:37;4.20;;;3.80;;
2656;SDS011;1338;48.176;11.792;2023-06-14T01:18:08;4.47;;;4.07;;
2656;SDS011;1338;48.176;11.792;2023-06-14T01:20:46;5.30;;;4.20;;
2656;SDS011;1338;48.176;11.792;2023-06-14T01:23:17;4.37;;;3.97;;
2656;SDS011;1338;48.176;11.792;2023-06-14T01:25:47;4.07;;;3.67;;
2656;SDS011;1338;48.176;11.792;2023-06-14T01:28:19;4.33;;;3.97;;
2656;SDS011;1338;48.176;11.792;2023-06-14T01:30:49;4.53;;;4.13;;
2656;SDS011;1338;48.176;11.792;2023-06-14T01:33:20;4.87;;;4.47;;
2656;SDS011;1338;48.176;11.792;2023-06-14T01:35:50;4.80;;;4.33;;
2656;SDS011;1338;48.176;11.792;2023-06-14T01:38:21;4.80;;;4.30;;
2656;SDS011;1338;48.176;11.792;2023-06-14T01:40:52;4.50;;;4.20;;
2656;SDS011;1338;48.176;11.792;2023-06-14T01:43:24;5.30;;;4.80;;
2656;SDS011;1338;48.176;11.792;2023-06-14T01:45:55;5.13;;;4.40;;
2656;SDS011;1338;48.176;11.792;2023-06-14T01:48:26;5.50;;;5.00;;
2656;SDS011;1338;48.176;11.792;2023-06-14T01:50:54;5.10;;;4.63;;
2656;SDS011;1338;48.176;11.792;2023-06-14T01:53:24;4.97;;;4.47;;
2656;SDS011;1338;48.176;11.792;2023-06-14T01:55:52;6.00;;;5.37;;
2656;SDS011;1338;48.176;11.792;2023-06-14T01:58:21;5.30;;;4.50;;
2656;SDS011;1338;48.176;11.792;2023-06-14T02:00:50;4.63;;;4.23;;
2656;SDS011;1338;48.176;11.792;2023-06-14T02:03:22;5.30;;;4.80;;
2656;SDS011;1338;48.176;11.792;2023-06-14T02:05:51;5.10;;;4.60;;
2656;SDS011;1338;48.176;11.792;2023-06-14T02:08:21;5.73;;;4.53;;
2656;SDS011;1338;48.176;11.792;2023-06-14T02:10:51;6.27;;;4.80;;
2656;SDS011;1338;48.176;11.792;2023-06-14T02:13:20;6.07;;;4.73;;
2656;SDS011;1338;48.176;11.792;2023-06-14T02:15:50;5.40;;;4.77;;
2656;SDS011;1338;48.176;11.792;2023-06-14T02:18:21;5.20;;;4.70;;
2656;SDS011;1338;48.176;11.792;2023-06-14T02:20:50;4.70;;;4.23;;
2656;SDS011;1338;48.176;11.792;2023-06-14T02:23:18;4.73;;;4.33;;
2656;SDS011;1338;48.176;11.792;2023-06-14T02:25:47;4.87;;;4.37;;
2656;SDS011;1338;48.176;11.792;2023-06-14T02:28:17;5.10;;;4.60;;
2656;SDS011;1338;48.176;11.792;2023-06-14T02:30:45;5.30;;;4.80;;
2656;SDS011;1338;48.176;11.792;2023-06-14T02:33:13;5.47;;;4.97;;
2656;SDS011;1338;48.176;11.792;2023-06-14T02:35:42;6.60;;;5.40;;
2656;SDS011;1338;48.176;11.792;2023-06-14T02:38:10;5.20;;;4.70;;
2656;SDS011;1338;48.176;11.792;2023-06-14T02:40:39;5.00;;;4.60;;
2656;SDS011;1338;48.176;11.792;2023-06-14T02:43:09;5.53;;;4.77;;
2656;SDS011;1338;48.176;11.792;2023-06-14T02:45:39;5.63;;;5.10;;
2656;SDS011;1338;48.176;11.792;2023-06-14T02:48:10;5.83;;;5.23;;
2656;SDS011;1338;48.176;11.792;2023-06-14T02:50:39;5.60;;;5.00;;
2656;SDS011;1338;48.176;11.792;2023-06-14T02:53:08;5.17;;;4.73;;
2656;SDS011;1338;48.176;11.792;2023-06-14T02:55:37;8.60;;;5.60;;
2656;SDS011;1338;48.176;11.792;2023-06-14T02:58:08;5.97;;;4.60;;
2656;SDS011;1338;48.176;11.792;2023-06-14T03:00:36;4.57;;;4.20;;
2656;SDS011;1338;48.176;11.792;2023-06-14T03:03:07;6.13;;;4.80;;
2656;SDS011;1338;48.176;11.792;2023-06-14T03:05:46;5.60;;;4.93;;
2656;SDS011;1338;48.176;11.792;2023-06-14T03:08:19;5.50;;;5.00;;
2656;SDS011;1338;48.176;11.792;2023-06-14T03:10:54;4.87;;;4.30;;
2656;SDS011;1338;48.176;11.792;2023-06-14T03:13:24;4.77;;;4.37;;
2656;SDS011;1338;48.176;11.792;2023-06-14T03:15:52;5.77;;;4.80;;
2656;SDS011;1338;48.176;11.792;2023-06-14T03:18:24;5.30;;;4.80;;
2656;SDS011;1338;48.176;11.792;2023-06-14T03:20:55;4.70;;;4.30;;
2656;SDS011;1338;48.176;11.792;2023-06-14T03:23:26;4.83;;;4.33;;
2656;SDS011;1338;48.176;11.792;2023-06-14T03:25:54;5.10;;;4.60;;
2656;SDS011;1338;48.176;11.792;2023-06-14T03:28:23;5.10;;;4.60;;
2656;SDS011;1338;48.176;11.792;2023-06-14T03:30:53;5.47;;;4.70;;
2656;SDS011;1338;48.176;11.792;2023-06-14T03:33:22;6.40;;;5.30;;
2656;SDS011;1338;48.176;11.792;2023-06-14T03:35:53;6.67;;;4.50;;
2656;SDS011;1338;48.176;11.792;2023-06-14T03:38:23;5.93;;;5.10;;
2656;SDS011;1338;48.176;11.792;2023-06-14T03:40:51;5.67;;;5.10;;
2656;SDS011;1338;48.176;11.792;2023-06-14T03:43:19;5.27;;;4.77;;
2656;SDS011;1338;48.176;11.792;2023-06-14T03:45:48;5.37;;;4.90;;
2656;SDS011;1338;48.176;11.792;2023-06-14T03:48:17;5.30;;;4.80;;
2656;SDS011;1338;48.176;11.792;2023-06-14T03:50:45;5.13;;;4.73;;
2656;SDS011;1338;48.176;11.792;2023-06-14T03:53:15;5.47;;;4.97;;
2656;SDS011;1338;48.176;11.792;2023-06-14T03:55:47;5.57;;;5.03;;
2656;SDS011;1338;48.176;11.792;2023-06-14T03:58:19;5.90;;;5.00;;
2656;SDS011;1338;48.176;11.792;2023-06-14T04:00:49;4.70;;;4.20;;
2656;SDS011;1338;48.176;11.792;2023-06-14T04:03:17;5.60;;;5.10;;
2656;SDS011;1338;48.176;11.792;2023-06-14T04:05:46;5.43;;;4.93;;
2656;SDS011;1338;48.176;11.792;2023-06-14T04:08:18;6.10;;;5.27;;
2656;SDS011;1338;48.176;11.792;2023-06-14T04:10:50;5.13;;;4.63;;
2656;SDS011;1338;48.176;11.792;2023-06-14T04:13:18;5.03;;;4.53;;
2656;SDS011;1338;48.176;11.792;2023-06-14T04:15:47;8.30;;;6.50;;
2656;SDS011;1338;48.176;11.792;2023-06-14T04:18:21;5.30;;;4.80;;
2656;SDS011;1338;48.176;11.792;2023-06-14T04:20:50;4.97;;;4.47;;
2656;SDS011;1338;48.176;11.792;2023-06-14T04:23:21;6.13;;;5.53;;
2656;SDS011;1338;48.176;11.792;2023-06-14T04:25:50;6.00;;;4.77;;
2656;SDS011;1338;48.176;11.792;2023-06-14T04:28:18;7.00;;;4.93;;
2656;SDS011;1338;48.176;11.792;2023-06-14T04:30:47;4.80;;;4.40;;
2656;SDS011;1338;48.176;11.792;2023-06-14T04:33:17;5.63;;;5.10;;
2656;SDS011;1338;48.176;11.792;2023-06-14T04:35:46;5.47;;;4.97;;
2656;SDS011;1338;48.176;11.792;2023-06-14T04:38:17;7.90;;;6.17;;
2656;SDS011;1338;48.176;11.792;2023-06-14T04:40:53;5.90;;;5.13;;
2656;SDS011;1338;48.176;11.792;2023-06-14T04:43:23;7.00;;;5.30;;
2656;SDS011;1338;48.176;11.792;2023-06-14T04:45:54;5.90;;;5.30;;
2656;SDS011;1338;48.176;11.792;2023-06-14T04:48:24;4.87;;;4.37;;
2656;SDS011;1338;48.176;11.792;2023-06-14T04:50:53;9.73;;;6.00;;
2656;SDS011;1338;48.176;11.792;2023-06-14T04:53:22;5.70;;;5.10;;
2656;SDS011;1338;48.176;11.792;2023-06-14T04:55:56;6.83;;;5.57;;
2656;SDS011;1338;48.176;11.792;2023-06-14T04:58:25;5.63;;;5.13;;
2656;SDS011;1338;48.176;11.792;2023-06-14T05:00:54;7.90;;;4.80;;
2656;SDS011;1338;48.176;11.792;2023-06-14T05:03:23;5.63;;;5.20;;
2656;SDS011;1338;48.176;11.792;2023-06-14T05:05:51;5.53;;;4.97;;
2656;SDS011;1338;48.176;11.792;2023-06-14T05:08:20;5.87;;;4.70;;
2656;SDS011;1338;48.176;11.792;2023-06-14T05:10:50;5.67;;;5.10;;
2656;SDS011;1338;48.176;11.792;2023-06-14T05:13:20;5.67;;;5.17;;
2656;SDS011;1338;48.176;11.792;2023-06-14T05:15:49;4.80;;;4.40;;
2656;SDS011;1338;48.176;11.792;2023-06-14T05:18:18;5.33;;;4.57;;
2656;SDS011;1338;48.176;11.792;2023-06-14T05:20:46;5.37;;;4.87;;
2656;SDS011;1338;48.176;11.792;2023-06-14T05:23:14;5.07;;;4.67;;
2656;SDS011;1338;48.176;11.792;2023-06-14T05:25:42;5.97;;;5.40;;
2656;SDS011;1338;48.176;11.792;2023-06-14T05:28:11;8.30;;;4.60;;
2656;SDS011;1338;48.176;11.792;2023-06-14T05:30:41;5.90;;;5.27;;
2656;SDS011;1338;48.176;11.792;2023-06-14T05:33:10;5.53;;;5.03;;
2656;SDS011;1338;48.176;11.792;2023-06-14T05:35:38;5.30;;;4.80;;
2656;SDS011;1338;48.176;11.792;2023-06-14T05:38:07;5.47;;;4.00;;
2656;SDS011;1338;48.176;11.792;2023-06-14T05:40:35;4.70;;;4.30;;
2656;SDS011;1338;48.176;11.792;2023-06-14T05:43:03;4.33;;;3.90;;
2656;SDS011;1338;48.176;11.792;2023-06-14T05:45:32;4.30;;;3.90;;
2656;SDS011;1338;48.176;11.792;2023-06-14T05:48:01;3.97;;;3.60;;
2656;SDS011;1338;48.176;11.792;2023-06-14T05:50:30;4.10;;;3.70;;
2656;SDS011;1338;48.176;11.792;2023-06-14T05:52:58;4.63;;;4.23;;
2656;SDS011;1338;48.176;11.792;2023-06-14T05:55:26;4.20;;;3.80;;
2656;SDS011;1338;48.176;11.792;2023-06-14T05:57:55;3.90;;;3.40;;
2656;SDS011;1338;48.176;11.792;2023-06-14T06:00:23;4.80;;;4.40;;
2656;SDS011;1338;48.176;11.792;2023-06-14T06:02:52;4.63;;;4.13;;
2656;SDS011;1338;48.176;11.792;2023-06-14T06:05:25;4.57;;;4.17;;
2656;SDS011;1338;48.176;11.792;2023-06-14T06:07:53;5.30;;;3.63;;
2656;SDS011;1338;48.176;11.792;2023-06-14T06:10:22;4.00;;;3.70;;
2656;SDS011;1338;48.176;11.792;2023-06-14T06:12:51;4.03;;;3.73;;
2656;SDS011;1338;48.176;11.792;2023-06-14T06:15:21;4.60;;;4.17;;
2656;SDS011;1338;48.176;11.792;2023-06-14T06:17:49;3.97;;;3.57;;
2656;SDS011;1338;48.176;11.792;2023-06-14T06:20:22;4.97;;;4.47;;
2656;SDS011;1338;48.176;11.792;2023-06-14T06:22:57;4.33;;;4.00;;
2656;SDS011;1338;48.176;11.792;2023-06-14T06:25:26;4.33;;;3.93;;
2656;SDS011;1338;48.176;11.792;2023-06-14T06:27:54;3.93;;;3.63;;
2656;SDS011;1338;48.176;11.792;2023-06-14T06:30:23;6.80;;;4.20;;
2656;SDS011;1338;48.176;11.792;2023-06-14T06:32:52;4.20;;;3.80;;
2656;SDS011;1338;48.176;11.792;2023-06-14T06:35:22;5.00;;;4.50;;
2656;SDS011;1338;48.176;11.792;2023-06-14T06:37:50;4.23;;;3.83;;
2656;SDS011;1338;48.176;11.792;2023-06-14T06:40:20;4.53;;;4.10;;
2656;SDS011;1338;48.176;11.792;2023-06-14T06:42:48;4.23;;;3.90;;
2656;SDS011;1338;48.176;11.792;2023-06-14T06:45:18;4.10;;;3.80;;
2656;SDS011;1338;48.176;11.792;2023-06-14T06:47:50;4.33;;;3.93;;
2656;SDS011;1338;48.176;11.792;2023-06-14T06:50:19;4.00;;;3.57;;
2656;SDS011;1338;48.176;11.792;2023-06-14T06:52:49;4.07;;;3.33;;
2656;SDS011;1338;48.176;11.792;2023-06-14T06:55:17;4.73;;;4.33;;
2656;SDS011;1338;48.176;11.792;2023-06-14T06:57:47;4.07;;;3.67;;
2656;SDS011;1338;48.176;11.792;2023-06-14T07:00:16;4.00;;;3.60;;
2656;SDS011;1338;48.176;11.792;2023-06-14T07:02:45;3.90;;;3.60;;
2656;SDS011;1338;48.176;11.792;2023-06-14T07:05:14;4.93;;;4.43;;
2656;SDS011;1338;48.176;11.792;2023-06-14T07:07:43;4.97;;;4.00;;
2656;SDS011;1338;48.176;11.792;2023-06-14T07:10:11;5.33;;;4.47;;
2656;SDS011;1338;48.176;11.792;2023-06-14T07:12:39;4.47;;;4.07;;
2656;SDS011;1338;48.176;11.792;2023-06-14T07:15:09;4.47;;;4.07;;
2656;SDS011;1338;48.176;11.792;2023-06-14T07:17:38;4.40;;;4.10;;
2656;SDS011;1338;48.176;11.792;2023-06-14T07:20:07;4.73;;;4.33;;
2656;SDS011;1338;48.176;11.792;2023-06-14T07:22:39;4.47;;;4.07;;
2656;SDS011;1338;48.176;11.792;2023-06-14T07:25:11;4.50;;;4.10;;
2656;SDS011;1338;48.176;11.792;2023-06-14T07:27:42;5.27;;;3.83;;
2656;SDS011;1338;48.176;11.792;2023-06-14T07:30:12;4.20;;;3.90;;
2656;SDS011;1338;48.176;11.792;2023-06-14T07:32:41;4.70;;;4.13;;
2656;SDS011;1338;48.176;11.792;2023-06-14T07:35:09;4.23;;;3.83;;
2656;SDS011;1338;48.176;11.792;2023-06-14T07:37:37;4.10;;;3.80;;
2656;SDS011;1338;48.176;11.792;2023-06-14T07:40:06;4.03;;;3.70;;
2656;SDS011;1338;48.176;11.792;2023-06-14T07:42:36;4.50;;;4.10;;
2656;SDS011;1338;48.176;11.792;2023-06-14T07:45:05;4.43;;;3.60;;
2656;SDS011;1338;48.176;11.792;2023-06-14T07:47:35;4.37;;;3.97;;
2656;SDS011;1338;48.176;11.792;2023-06-14T07:50:04;4.47;;;3.73;;
2656;SDS011;1338;48.176;11.792;2023-06-14T07:52:35;4.27;;;3.87;;
2656;SDS011;1338;48.176;11.792;2023-06-14T07:55:03;4.27;;;3.80;;
2656;SDS011;1338;48.176;11.792;2023-06-14T07:57:33;4.03;;;3.73;;
2656;SDS011;1338;48.176;11.792;2023-06-14T08:00:02;5.50;;;4.10;;
2656;SDS011;1338;48.176;11.792;2023-06-14T08:02:38;3.80;;;3.40;;
2656;SDS011;1338;48.176;11.792;2023-06-14T08:05:07;4.50;;;4.10;;
2656;SDS011;1338;48.176;11.792;2023-06-14T08:07:37;3.90;;;3.60;;
2656;SDS011;1338;48.176;11.792;2023-06-14T08:10:06;4.03;;;3.73;;
2656;SDS011;1338;48.176;11.792;2023-06-14T08:12:35;4.40;;;4.00;;
2656;SDS011;1338;48.176;11.792;2023-06-14T08:15:05;3.37;;;3.17;;
2656;SDS011;1338;48.176;11.792;2023-06-14T08:17:44;3.90;;;3.60;;
2656;SDS011;1338;48.176;11.792;2023-06-14T08:20:12;3.80;;;3.47;;
2656;SDS011;1338;48.176;11.792;2023-06-14T08:22:42;3.83;;;3.53;;
2656;SDS011;1338;48.176;11.792;2023-06-14T08:25:12;4.07;;;3.77;;
2656;SDS011;1338;48.176;11.792;2023-06-14T08:27:41;4.43;;;4.03;;
2656;SDS011;1338;48.176;11.792;2023-06-14T08:30:10;4.30;;;3.90;;
2656;SDS011;1338;48.176;11.792;2023-06-14T08:32:39;3.73;;;3.43;;
2656;SDS011;1338;48.176;11.792;2023-06-14T08:35:09;3.87;;;3.57;;
2656;SDS011;1338;48.176;11.792;2023-06-14T08:37:39;4.47;;;4.17;;
2656;SDS011;1338;48.176;11.792;2023-06-14T08:40:12;4.40;;;4.00;;
2656;SDS011;1338;48.176;11.792;2023-06-14T08:42:48;3.70;;;3.40;;
2656;SDS011;1338;48.176;11.792;2023-06-14T08:45:19;4.63;;;4.20;;
2656;SDS011;1338;48.176;11.792;2023-06-14T08:47:51;4.03;;;3.70;;
2656;SDS011;1338;48.176;11.792;2023-06-14T08:50:26;4.07;;;3.77;;
2656;SDS011;1338;48.176;11.792;2023-06-14T08:52:59;4.37;;;4.00;;
2656;SDS011;1338;48.176;11.792;2023-06-14T08:55:30;3.87;;;3.57;;
2656;SDS011;1338;48.176;11.792;2023-06-14T08:58:03;3.97;;;3.67;;
2656;SDS011;1338;48.176;11.792;2023-06-14T09:00:32;4.00;;;3.63;;
2656;SDS011;1338;48.176;11.792;2023-06-14T09:03:01;4.10;;;3.77;;
2656;SDS011;1338;48.176;11.792;2023-06-14T09:05:31;4.43;;;4.03;;
2656;SDS011;1338;48.176;11.792;2023-06-14T09:08:00;4.30;;;4.00;;
2656;SDS011;1338;48.176;11.792;2023-06-14T09:10:32;5.20;;;4.33;;
2656;SDS011;1338;48.176;11.792;2023-06-14T09:13:01;4.90;;;4.50;;
2656;SDS011;1338;48.176;11.792;2023-06-14T09:15:29;4.30;;;3.90;;
2656;SDS011;1338;48.176;11.792;2023-06-14T09:17:58;4.70;;;4.30;;
2656;SDS011;1338;48.176;11.792;2023-06-14T09:20:29;4.57;;;4.17;;
2656;SDS011;1338;48.176;11.792;2023-06-14T09:23:00;3.87;;;3.57;;
2656;SDS011;1338;48.176;11.792;2023-06-14T09:25:28;6.20;;;3.80;;
2656;SDS011;1338;48.176;11.792;2023-06-14T09:28:06;4.87;;;3.93;;
2656;SDS011;1338;48.176;11.792;2023-06-14T09:30:36;3.80;;;3.50;;
2656;SDS011;1338;48.176;11.792;2023-06-14T09:33:05;5.97;;;4.30;;
2656;SDS011;1338;48.176;11.792;2023-06-14T09:35:34;3.90;;;3.60;;
2656;SDS011;1338;48.176;11.792;2023-06-14T09:38:04;3.97;;;3.60;;
2656;SDS011;1338;48.176;11.792;2023-06-14T09:40:34;4.30;;;4.00;;
2656;SDS011;1338;48.176;11.792;2023-06-14T09:43:04;4.77;;;4.37;;
2656;SDS011;1338;48.176;11.792;2023-06-14T09:45:35;4.03;;;3.73;;
2656;SDS011;1338;48.176;11.792;2023-06-14T09:48:06;3.83;;;3.53;;
2656;SDS011;1338;48.176;11.792;2023-06-14T09:50:35;4.10;;;3.77;;
2656;SDS011;1338;48.176;11.792;2023-06-14T09:53:05;4.03;;;3.73;;
2656;SDS011;1338;48.176;11.792;2023-06-14T09:55:34;5.20;;;4.20;;
2656;SDS011;1338;48.176;11.792;2023-06-14T09:58:05;4.60;;;4.20;;
2656;SDS011;1338;48.176;11.792;2023-06-14T10:00:35;4.63;;;4.20;;
2656;SDS011;1338;48.176;11.792;2023-06-14T10:03:06;4.87;;;4.47;;
2656;SDS011;1338;48.176;11.792;2023-06-14T10:05:41;4.40;;;4.10;;
2656;SDS011;1338;48.176;11.792;2023-06-14T10:08:14;4.60;;;4.20;;
2656;SDS011;1338;48.176;11.792;2023-06-14T10:10:45;4.10;;;3.80;;
2656;SDS011;1338;48.176;11.792;2023-06-14T10:13:14;4.70;;;4.30;;
2656;SDS011;1338;48.176;11.792;2023-06-14T10:15:46;5.20;;;4.80;;
2656;SDS011;1338;48.176;11.792;2023-06-14T10:18:25;4.77;;;4.37;;
2656;SDS011;1338;48.176;11.792;2023-06-14T10:21:03;4.03;;;3.73;;
2656;SDS011;1338;48.176;11.792;2023-06-14T10:23:39;4.43;;;4.07;;
2656;SDS011;1338;48.176;11.792;2023-06-14T10:26:17;4.63;;;4.23;;
2656;SDS011;1338;48.176;11.792;2023-06-14T10:28:55;4.13;;;3.80;;
2656;SDS011;1338;48.176;11.792;2023-06-14T10:34:22;4.20;;;3.90;;
2656;SDS011;1338;48.176;11.792;2023-06-14T10:37:00;3.83;;;3.50;;
2656;SDS011;1338;48.176;11.792;2023-06-14T10:39:32;4.20;;;3.90;;
2656;SDS011;1338;48.176;11.792;2023-06-14T10:42:03;4.67;;;4.30;;
2656;SDS011;1338;48.176;11.792;2023-06-14T10:44:38;6.77;;;4.47;;
2656;SDS011;1338;48.176;11.792;2023-06-14T10:47:08;4.20;;;3.80;;
2656;SDS011;1338;48.176;11.792;2023-06-14T10:49:42;4.77;;;4.37;;
2656;SDS011;1338;48.176;11.792;2023-06-14T10:52:12;4.50;;;4.10;;
2656;SDS011;1338;48.176;11.792;2023-06-14T10:57:38;4.20;;;3.90;;
2656;SDS011;1338;48.176;11.792;2023-06-14T11:00:18;4.60;;;4.20;;
2656;SDS011;1338;48.176;11.792;2023-06-14T11:05:51;4.53;;;4.23;;
2656;SDS011;1338;48.176;11.792;2023-06-14T11:08:27;4.63;;;4.23;;
2656;SDS011;1338;48.176;11.792;2023-06-14T11:11:09;4.67;;;4.13;;
2656;SDS011;1338;48.176;11.792;2023-06-14T11:13:38;4.87;;;4.47;;
2656;SDS011;1338;48.176;11.792;2023-06-14T11:16:10;5.07;;;4.67;;
2656;SDS011;1338;48.176;11.792;2023-06-14T11:18:40;4.80;;;4.40;;
2656;SDS011;1338;48.176;11.792;2023-06-14T11:21:08;3.63;;;3.43;;
2656;SDS011;1338;48.176;11.792;2023-06-14T11:23:37;4.67;;;4.33;;
2656;SDS011;1338;48.176;11.792;2023-06-14T11:26:05;5.10;;;4.60;;
2656;SDS011;1338;48.176;11.792;2023-06-14T11:28:39;4.60;;;4.20;;
2656;SDS011;1338;48.176;11.792;2023-06-14T11:31:08;4.60;;;4.30;;
2656;SDS011;1338;48.176;11.792;2023-06-14T11:33:37;4.60;;;4.30;;
2656;SDS011;1338;48.176;11.792;2023-06-14T11:36:05;4.53;;;4.23;;
2656;SDS011;1338;48.176;11.792;2023-06-14T11:38:35;4.70;;;4.30;;
2656;SDS011;1338;48.176;11.792;2023-06-14T11:41:04;5.00;;;4.60;;
2656;SDS011;1338;48.176;11.792;2023-06-14T11:43:32;4.50;;;4.20;;
2656;SDS011;1338;48.176;11.792;2023-06-14T11:46:03;5.30;;;4.90;;
2656;SDS011;1338;48.176;11.792;2023-06-14T11:48:37;4.53;;;4.13;;
2656;SDS011;1338;48.176;11.792;2023-06-14T11:51:06;4.57;;;4.17;;
2656;SDS011;1338;48.176;11.792;2023-06-14T11:53:34;4.30;;;4.00;;
2656;SDS011;1338;48.176;11.792;2023-06-14T11:56:03;5.10;;;4.70;;
2656;SDS011;1338;48.176;11.792;2023-06-14T11:58:32;5.40;;;4.43;;
2656;SDS011;1338;48.176;11.792;2023-06-14T12:01:00;4.67;;;4.27;;
2656;SDS011;1338;48.176;11.792;2023-06-14T12:03:32;4.70;;;4.33;;
2656;SDS011;1338;48.176;11.792;2023-06-14T12:06:03;4.20;;;3.90;;
2656;SDS011;1338;48.176;11.792;2023-06-14T12:08:34;4.63;;;4.23;;
2656;SDS011;1338;48.176;11.792;2023-06-14T12:11:05;5.00;;;4.60;;
2656;SDS011;1338;48.176;11.792;2023-06-14T12:13:37;5.60;;;4.80;;
2656;SDS011;1338;48.176;11.792;2023-06-14T12:16:08;4.77;;;4.37;;
2656;SDS011;1338;48.176;11.792;2023-06-14T12:18:38;4.70;;;4.30;;
2656;SDS011;1338;48.176;11.792;2023-06-14T12:21:08;4.90;;;4.07;;
2656;SDS011;1338;48.176;11.792;2023-06-14T12:23:44;5.00;;;4.50;;
2656;SDS011;1338;48.176;11.792;2023-06-14T12:26:14;4.90;;;4.40;;
2656;SDS011;1338;48.176;11.792;2023-06-14T12:28:44;5.10;;;4.60;;
2656;SDS011;1338;48.176;11.792;2023-06-14T12:31:14;5.00;;;4.60;;
2656;SDS011;1338;48.176;11.792;2023-06-14T12:33:46;4.10;;;3.80;;
2656;SDS011;1338;48.176;11.792;2023-06-14T12:36:15;4.53;;;4.20;;
2656;SDS011;1338;48.176;11.792;2023-06-14T12:38:44;5.20;;;4.70;;
2656;SDS011;1338;48.176;11.792;2023-06-14T12:41:12;4.67;;;4.27;;
2656;SDS011;1338;48.176;11.792;2023-06-14T12:43:41;4.60;;;4.20;;
2656;SDS011;1338;48.176;11.792;2023-06-14T12:46:09;4.63;;;4.30;;
2656;SDS011;1338;48.176;11.792;2023-06-14T12:48:39;4.83;;;4.33;;
2656;SDS011;1338;48.176;11.792;2023-06-14T12:51:07;4.70;;;4.30;;
2656;SDS011;1338;48.176;11.792;2023-06-14T12:53:35;4.60;;;4.20;;
2656;SDS011;1338;48.176;11.792;2023-06-14T12:56:03;4.90;;;4.60;;
2656;SDS011;1338;48.176;11.792;2023-06-14T12:58:32;4.80;;;4.40;;
2656;SDS011;1338;48.176;11.792;2023-06-14T13:01:00;4.10;;;3.80;;
2656;SDS011;1338;48.176;11.792;2023-06-14T13:03:28;5.17;;;4.73;;
2656;SDS011;1338;48.176;11.792;2023-06-14T13:05:58;4.23;;;3.90;;
2656;SDS011;1338;48.176;11.792;2023-06-14T13:08:27;5.00;;;4.60;;
2656;SDS011;1338;48.176;11.792;2023-06-14T13:10:56;4.70;;;4.30;;
2656;SDS011;1338;48.176;11.792;2023-06-14T13:13:24;5.77;;;5.00;;
2656;SDS011;1338;48.176;11.792;2023-06-14T13:15:52;4.57;;;4.17;;
2656;SDS011;1338;48.176;11.792;2023-06-14T13:18:20;3.90;;;3.70;;
2656;SDS011;1338;48.176;11.792;2023-06-14T13:20:49;5.10;;;3.53;;
2656;SDS011;1338;48.176;11.792;2023-06-14T13:23:18;4.23;;;3.83;;
2656;SDS011;1338;48.176;11.792;2023-06-14T13:25:46;4.50;;;4.20;;
2656;SDS011;1338;48.176;11.792;2023-06-14T13:28:16;4.70;;;4.30;;
2656;SDS011;1338;48.176;11.792;2023-06-14T13:30:44;4.70;;;4.40;;
2656;SDS011;1338;48.176;11.792;2023-06-14T13:33:12;4.50;;;4.10;;
2656;SDS011;1338;48.176;11.792;2023-06-14T13:35:41;4.60;;;4.20;;
2656;SDS011;1338;48.176;11.792;2023-06-14T13:38:10;4.53;;;4.13;;
2656;SDS011;1338;48.176;11.792;2023-06-14T13:40:39;4.10;;;3.80;;
2656;SDS011;1338;48.176;11.792;2023-06-14T13:43:08;4.30;;;4.00;;
2656;SDS011;1338;48.176;11.792;2023-06-14T13:45:36;4.67;;;4.30;;
2656;SDS011;1338;48.176;11.792;2023-06-14T13:48:05;4.87;;;4.47;;
2656;SDS011;1338;48.176;11.792;2023-06-14T13:50:33;4.70;;;4.30;;
2656;SDS011;1338;48.176;11.792;2023-06-14T13:53:02;4.73;;;4.33;;
2656;SDS011;1338;48.176;11.792;2023-06-14T13:55:30;4.30;;;3.93;;
2656;SDS011;1338;48.176;11.792;2023-06-14T13:58:00;4.93;;;4.53;;
2656;SDS011;1338;48.176;11.792;2023-06-14T14:00:29;5.47;;;4.97;;
2656;SDS011;1338;48.176;11.792;2023-06-14T14:02:58;4.93;;;4.13;;
2656;SDS011;1338;48.176;11.792;2023-06-14T14:05:27;4.30;;;4.00;;
2656;SDS011;1338;48.176;11.792;2023-06-14T14:07:56;5.00;;;4.63;;
2656;SDS011;1338;48.176;11.792;2023-06-14T14:10:24;4.70;;;4.37;;
2656;SDS011;1338;48.176;11.792;2023-06-14T14:12:53;4.50;;;4.20;;
2656;SDS011;1338;48.176;11.792;2023-06-14T14:15:22;4.70;;;4.30;;
2656;SDS011;1338;48.176;11.792;2023-06-14T14:17:51;4.40;;;4.10;;
2656;SDS011;1338;48.176;11.792;2023-06-14T14:20:21;4.00;;;3.70;;
2656;SDS011;1338;48.176;11.792;2023-06-14T14:22:49;5.03;;;4.57;;
2656;SDS011;1338;48.176;11.792;2023-06-14T14:25:17;5.10;;;4.70;;
2656;SDS011;1338;48.176;11.792;2023-06-14T14:27:46;4.80;;;4.50;;
2656;SDS011;1338;48.176;11.792;2023-06-14T14:30:16;4.63;;;4.23;;
2656;SDS011;1338;48.176;11.792;2023-06-14T14:32:53;5.10;;;4.70;;
2656;SDS011;1338;48.176;11.792;2023-06-14T14:35:22;4.47;;;4.17;;
2656;SDS011;1338;48.176;11.792;2023-06-14T14:37:52;4.60;;;4.30;;
2656;SDS011;1338;48.176;11.792;2023-06-14T14:40:21;4.90;;;4.50;;
2656;SDS011;1338;48.176;11.792;2023-06-14T14:42:50;4.77;;;4.47;;
2656;SDS011;1338;48.176;11.792;2023-06-14T14:45:18;4.77;;;4.40;;
2656;SDS011;1338;48.176;11.792;2023-06-14T14:47:46;5.63;;;5.23;;
2656;SDS011;1338;48.176;11.792;2023-06-14T14:50:16;4.70;;;4.30;;
2656;SDS011;1338;48.176;11.792;2023-06-14T14:52:45;4.70;;;4.40;;
2656;SDS011;1338;48.176;11.792;2023-06-14T14:55:13;4.73;;;4.40;;
2656;SDS011;1338;48.176;11.792;2023-06-14T14:57:42;4.80;;;4.40;;
2656;SDS011;1338;48.176;11.792;2023-06-14T15:00:11;4.77;;;4.20;;
2656;SDS011;1338;48.176;11.792;2023-06-14T15:02:40;4.73;;;4.43;;
2656;SDS011;1338;48.176;11.792;2023-06-14T15:05:08;4.50;;;4.10;;
2656;SDS011;1338;48.176;11.792;2023-06-14T15:07:38;4.73;;;4.40;;
2656;SDS011;1338;48.176;11.792;2023-06-14T15:10:07;4.93;;;4.47;;
2656;SDS011;1338;48.176;11.792;2023-06-14T15:12:35;4.80;;;4.40;;
2656;SDS011;1338;48.176;11.792;2023-06-14T15:15:04;4.90;;;4.60;;
2656;SDS011;1338;48.176;11.792;2023-06-14T15:17:36;4.33;;;4.03;;
2656;SDS011;1338;48.176;11.792;2023-06-14T15:20:05;4.40;;;4.20;;
2656;SDS011;1338;48.176;11.792;2023-06-14T15:22:34;5.57;;;5.07;;
2656;SDS011;1338;48.176;11.792;2023-06-14T15:25:04;4.27;;;3.97;;